sensor_id;sensor_type;location;lat;lon;timestamp;P1;durP1;ratioP1;P2;durP2;ratioP2
44189;SDS011;29856;52.144;5.430;2022-12-18T00:01:01;58.13;;;29.10;;
44189;SDS011;29856;52.144;5.430;2022-12-18T00:03:28;65.32;;;31.67;;
44189;SDS011;29856;52.144;5.430;2022-12-18T00:05:53;69.88;;;30.83;;
44189;SDS011;29856;52.144;5.430;2022-12-18T00:08:19;61.85;;;29.38;;
44189;SDS011;29856;52.144;5.430;2022-12-18T00:10:44;66.18;;;32.42;;
44189;SDS011;29856;52.144;5.430;2022-12-18T00:13:13;69.95;;;34.88;;
44189;SDS011;29856;52.144;5.430;2022-12-18T00:15:39;66.90;;;30.88;;
44189;SDS011;29856;52.144;5.430;2022-12-18T00:18:04;73.85;;;33.67;;
44189;SDS011;29856;52.144;5.430;2022-12-18T00:20:31;69.70;;;31.67;;
44189;SDS011;29856;52.144;5.430;2022-12-18T00:23:00;62.50;;;29.23;;
44189;SDS011;29856;52.144;5.430;2022-12-18T00:25:26;67.05;;;30.88;;
44189;SDS011;29856;52.144;5.430;2022-12-18T00:27:54;68.28;;;32.72;;
44189;SDS011;29856;52.144;5.430;2022-12-18T00:30:19;71.82;;;32.45;;
44189;SDS011;29856;52.144;5.430;2022-12-18T00:32:44;58.05;;;28.08;;
44189;SDS011;29856;52.144;5.430;2022-12-18T00:35:10;64.63;;;31.75;;
44189;SDS011;29856;52.144;5.430;2022-12-18T00:37:35;68.22;;;30.85;;
44189;SDS011;29856;52.144;5.430;2022-12-18T00:40:01;60.63;;;27.40;;
44189;SDS011;29856;52.144;5.430;2022-12-18T00:42:27;60.60;;;29.35;;
44189;SDS011;29856;52.144;5.430;2022-12-18T00:44:53;65.78;;;32.38;;
44189;SDS011;29856;52.144;5.430;2022-12-18T00:47:18;69.05;;;31.63;;
44189;SDS011;29856;52.144;5.430;2022-12-18T00:49:44;66.00;;;30.67;;
44189;SDS011;29856;52.144;5.430;2022-12-18T00:52:09;74.57;;;32.67;;
44189;SDS011;29856;52.144;5.430;2022-12-18T00:54:35;70.57;;;32.88;;
44189;SDS011;29856;52.144;5.430;2022-12-18T00:57:00;76.65;;;35.15;;
44189;SDS011;29856;52.144;5.430;2022-12-18T00:59:26;76.80;;;34.40;;
44189;SDS011;29856;52.144;5.430;2022-12-18T01:01:51;72.65;;;34.40;;
44189;SDS011;29856;52.144;5.430;2022-12-18T01:04:16;67.95;;;31.25;;
44189;SDS011;29856;52.144;5.430;2022-12-18T01:06:42;71.28;;;31.85;;
44189;SDS011;29856;52.144;5.430;2022-12-18T01:09:07;76.65;;;34.25;;
44189;SDS011;29856;52.144;5.430;2022-12-18T01:11:33;68.85;;;31.85;;
44189;SDS011;29856;52.144;5.430;2022-12-18T01:13:58;72.35;;;33.08;;
44189;SDS011;29856;52.144;5.430;2022-12-18T01:16:24;75.47;;;32.92;;
44189;SDS011;29856;52.144;5.430;2022-12-18T01:18:53;70.70;;;34.30;;
44189;SDS011;29856;52.144;5.430;2022-12-18T01:21:19;75.05;;;33.83;;
44189;SDS011;29856;52.144;5.430;2022-12-18T01:23:45;80.40;;;35.60;;
44189;SDS011;29856;52.144;5.430;2022-12-18T01:26:12;67.35;;;32.85;;
44189;SDS011;29856;52.144;5.430;2022-12-18T01:28:39;76.55;;;34.25;;
44189;SDS011;29856;52.144;5.430;2022-12-18T01:31:24;78.53;;;35.28;;
44189;SDS011;29856;52.144;5.430;2022-12-18T01:33:52;80.72;;;36.03;;
44189;SDS011;29856;52.144;5.430;2022-12-18T01:36:19;74.60;;;34.28;;
44189;SDS011;29856;52.144;5.430;2022-12-18T01:38:47;78.70;;;33.58;;
44189;SDS011;29856;52.144;5.430;2022-12-18T01:41:17;82.13;;;35.97;;
44189;SDS011;29856;52.144;5.430;2022-12-18T01:43:54;81.55;;;36.25;;
44189;SDS011;29856;52.144;5.430;2022-12-18T01:46:21;75.63;;;33.63;;
44189;SDS011;29856;52.144;5.430;2022-12-18T01:48:51;76.10;;;33.97;;
44189;SDS011;29856;52.144;5.430;2022-12-18T01:51:21;79.05;;;34.80;;
44189;SDS011;29856;52.144;5.430;2022-12-18T01:53:47;78.57;;;34.92;;
44189;SDS011;29856;52.144;5.430;2022-12-18T01:56:15;72.15;;;35.03;;
44189;SDS011;29856;52.144;5.430;2022-12-18T02:01:21;74.95;;;33.10;;
44189;SDS011;29856;52.144;5.430;2022-12-18T02:03:48;77.35;;;33.95;;
44189;SDS011;29856;52.144;5.430;2022-12-18T02:08:51;75.55;;;34.13;;
44189;SDS011;29856;52.144;5.430;2022-12-18T02:14:40;65.07;;;31.50;;
44189;SDS011;29856;52.144;5.430;2022-12-18T02:17:21;66.68;;;31.25;;
44189;SDS011;29856;52.144;5.430;2022-12-18T02:22:50;70.22;;;31.30;;
44189;SDS011;29856;52.144;5.430;2022-12-18T02:25:42;69.20;;;30.38;;
44189;SDS011;29856;52.144;5.430;2022-12-18T02:28:31;60.42;;;28.83;;
44189;SDS011;29856;52.144;5.430;2022-12-18T02:31:00;60.65;;;29.23;;
44189;SDS011;29856;52.144;5.430;2022-12-18T02:33:28;64.82;;;29.30;;
44189;SDS011;29856;52.144;5.430;2022-12-18T02:35:56;63.78;;;30.05;;
44189;SDS011;29856;52.144;5.430;2022-12-18T02:38:23;60.05;;;28.77;;
44189;SDS011;29856;52.144;5.430;2022-12-18T02:40:50;56.40;;;28.75;;
44189;SDS011;29856;52.144;5.430;2022-12-18T02:43:17;55.63;;;27.70;;
44189;SDS011;29856;52.144;5.430;2022-12-18T02:45:47;61.50;;;29.05;;
44189;SDS011;29856;52.144;5.430;2022-12-18T02:48:14;58.60;;;27.98;;
44189;SDS011;29856;52.144;5.430;2022-12-18T02:50:44;56.67;;;28.83;;
44189;SDS011;29856;52.144;5.430;2022-12-18T02:53:22;63.17;;;30.38;;
44189;SDS011;29856;52.144;5.430;2022-12-18T02:56:03;53.58;;;28.75;;
44189;SDS011;29856;52.144;5.430;2022-12-18T03:02:12;52.38;;;26.15;;
44189;SDS011;29856;52.144;5.430;2022-12-18T03:04:08;48.10;;;25.08;;
44189;SDS011;29856;52.144;5.430;2022-12-18T03:06:49;50.97;;;26.20;;
44189;SDS011;29856;52.144;5.430;2022-12-18T03:09:21;54.63;;;26.60;;
44189;SDS011;29856;52.144;5.430;2022-12-18T03:11:55;47.67;;;24.27;;
44189;SDS011;29856;52.144;5.430;2022-12-18T03:14:25;50.47;;;25.10;;
44189;SDS011;29856;52.144;5.430;2022-12-18T03:16:56;48.45;;;25.67;;
44189;SDS011;29856;52.144;5.430;2022-12-18T03:19:27;44.45;;;23.70;;
44189;SDS011;29856;52.144;5.430;2022-12-18T03:21:55;53.42;;;26.25;;
44189;SDS011;29856;52.144;5.430;2022-12-18T03:24:22;46.40;;;24.25;;
44189;SDS011;29856;52.144;5.430;2022-12-18T03:26:52;50.50;;;26.20;;
44189;SDS011;29856;52.144;5.430;2022-12-18T03:29:33;47.95;;;23.60;;
44189;SDS011;29856;52.144;5.430;2022-12-18T03:32:06;51.15;;;25.70;;
44189;SDS011;29856;52.144;5.430;2022-12-18T03:34:39;47.10;;;23.95;;
44189;SDS011;29856;52.144;5.430;2022-12-18T03:37:06;49.88;;;24.45;;
44189;SDS011;29856;52.144;5.430;2022-12-18T03:39:32;49.92;;;24.75;;
44189;SDS011;29856;52.144;5.430;2022-12-18T03:47:31;42.55;;;21.67;;
44189;SDS011;29856;52.144;5.430;2022-12-18T03:50:18;42.42;;;23.40;;
44189;SDS011;29856;52.144;5.430;2022-12-18T03:55:25;41.17;;;21.15;;
44189;SDS011;29856;52.144;5.430;2022-12-18T03:57:54;39.17;;;21.20;;
44189;SDS011;29856;52.144;5.430;2022-12-18T04:00:20;39.60;;;22.58;;
44189;SDS011;29856;52.144;5.430;2022-12-18T04:02:47;47.47;;;23.02;;
44189;SDS011;29856;52.144;5.430;2022-12-18T04:05:16;37.58;;;22.50;;
44189;SDS011;29856;52.144;5.430;2022-12-18T04:07:42;38.33;;;21.45;;
44189;SDS011;29856;52.144;5.430;2022-12-18T04:10:11;38.08;;;21.05;;
44189;SDS011;29856;52.144;5.430;2022-12-18T04:12:38;40.90;;;22.23;;
44189;SDS011;29856;52.144;5.430;2022-12-18T04:15:04;39.42;;;20.17;;
44189;SDS011;29856;52.144;5.430;2022-12-18T04:17:30;35.97;;;19.88;;
44189;SDS011;29856;52.144;5.430;2022-12-18T04:19:55;42.40;;;21.02;;
44189;SDS011;29856;52.144;5.430;2022-12-18T04:22:21;43.30;;;22.27;;
44189;SDS011;29856;52.144;5.430;2022-12-18T04:24:47;40.67;;;21.15;;
44189;SDS011;29856;52.144;5.430;2022-12-18T04:27:12;38.92;;;21.05;;
44189;SDS011;29856;52.144;5.430;2022-12-18T04:29:37;40.30;;;20.27;;
44189;SDS011;29856;52.144;5.430;2022-12-18T04:32:03;36.13;;;18.70;;
44189;SDS011;29856;52.144;5.430;2022-12-18T04:34:29;36.70;;;19.63;;
44189;SDS011;29856;52.144;5.430;2022-12-18T04:36:54;38.08;;;20.40;;
44189;SDS011;29856;52.144;5.430;2022-12-18T04:39:19;32.17;;;18.30;;
44189;SDS011;29856;52.144;5.430;2022-12-18T04:41:45;38.53;;;21.13;;
44189;SDS011;29856;52.144;5.430;2022-12-18T04:44:10;33.97;;;18.88;;
44189;SDS011;29856;52.144;5.430;2022-12-18T04:46:36;33.05;;;17.27;;
44189;SDS011;29856;52.144;5.430;2022-12-18T04:49:01;31.73;;;17.25;;
44189;SDS011;29856;52.144;5.430;2022-12-18T04:51:27;31.60;;;17.05;;
44189;SDS011;29856;52.144;5.430;2022-12-18T04:53:53;33.00;;;18.20;;
44189;SDS011;29856;52.144;5.430;2022-12-18T04:56:18;32.33;;;17.42;;
44189;SDS011;29856;52.144;5.430;2022-12-18T04:58:44;32.85;;;17.63;;
44189;SDS011;29856;52.144;5.430;2022-12-18T05:01:10;34.08;;;19.42;;
44189;SDS011;29856;52.144;5.430;2022-12-18T05:03:37;33.83;;;17.90;;
44189;SDS011;29856;52.144;5.430;2022-12-18T05:06:03;33.75;;;17.70;;
44189;SDS011;29856;52.144;5.430;2022-12-18T05:08:30;28.17;;;15.35;;
44189;SDS011;29856;52.144;5.430;2022-12-18T05:11:02;29.08;;;16.40;;
44189;SDS011;29856;52.144;5.430;2022-12-18T05:13:29;30.10;;;15.60;;
44189;SDS011;29856;52.144;5.430;2022-12-18T05:15:55;32.58;;;16.52;;
44189;SDS011;29856;52.144;5.430;2022-12-18T05:18:21;28.90;;;16.67;;
44189;SDS011;29856;52.144;5.430;2022-12-18T05:20:47;27.50;;;15.55;;
44189;SDS011;29856;52.144;5.430;2022-12-18T05:23:14;25.58;;;15.02;;
44189;SDS011;29856;52.144;5.430;2022-12-18T05:25:40;25.65;;;15.23;;
44189;SDS011;29856;52.144;5.430;2022-12-18T05:28:05;30.83;;;17.45;;
44189;SDS011;29856;52.144;5.430;2022-12-18T05:30:31;31.48;;;15.52;;
44189;SDS011;29856;52.144;5.430;2022-12-18T05:32:56;28.02;;;15.38;;
44189;SDS011;29856;52.144;5.430;2022-12-18T05:35:22;25.42;;;14.02;;
44189;SDS011;29856;52.144;5.430;2022-12-18T05:37:47;24.50;;;14.57;;
44189;SDS011;29856;52.144;5.430;2022-12-18T05:40:12;26.40;;;14.40;;
44189;SDS011;29856;52.144;5.430;2022-12-18T05:42:38;27.80;;;15.57;;
44189;SDS011;29856;52.144;5.430;2022-12-18T05:45:04;26.33;;;14.50;;
44189;SDS011;29856;52.144;5.430;2022-12-18T05:47:30;25.38;;;15.70;;
44189;SDS011;29856;52.144;5.430;2022-12-18T05:49:56;26.98;;;15.90;;
44189;SDS011;29856;52.144;5.430;2022-12-18T05:52:21;28.77;;;16.65;;
44189;SDS011;29856;52.144;5.430;2022-12-18T05:54:46;28.88;;;15.80;;
44189;SDS011;29856;52.144;5.430;2022-12-18T05:57:12;29.88;;;16.40;;
44189;SDS011;29856;52.144;5.430;2022-12-18T05:59:38;31.23;;;16.63;;
44189;SDS011;29856;52.144;5.430;2022-12-18T06:02:03;28.00;;;15.75;;
44189;SDS011;29856;52.144;5.430;2022-12-18T06:04:30;30.90;;;16.45;;
44189;SDS011;29856;52.144;5.430;2022-12-18T06:06:56;30.75;;;16.45;;
44189;SDS011;29856;52.144;5.430;2022-12-18T06:09:21;31.92;;;17.42;;
44189;SDS011;29856;52.144;5.430;2022-12-18T06:11:47;31.80;;;17.13;;
44189;SDS011;29856;52.144;5.430;2022-12-18T06:14:12;26.35;;;14.82;;
44189;SDS011;29856;52.144;5.430;2022-12-18T06:16:38;31.20;;;16.40;;
44189;SDS011;29856;52.144;5.430;2022-12-18T06:19:04;26.95;;;15.23;;
44189;SDS011;29856;52.144;5.430;2022-12-18T06:21:30;25.42;;;14.68;;
44189;SDS011;29856;52.144;5.430;2022-12-18T06:23:56;32.38;;;15.90;;
44189;SDS011;29856;52.144;5.430;2022-12-18T06:26:22;31.95;;;17.15;;
44189;SDS011;29856;52.144;5.430;2022-12-18T06:28:47;30.52;;;16.95;;
44189;SDS011;29856;52.144;5.430;2022-12-18T06:31:13;29.65;;;16.38;;
44189;SDS011;29856;52.144;5.430;2022-12-18T06:33:39;34.35;;;17.30;;
44189;SDS011;29856;52.144;5.430;2022-12-18T06:36:05;30.67;;;16.58;;
44189;SDS011;29856;52.144;5.430;2022-12-18T06:38:37;27.15;;;14.13;;
44189;SDS011;29856;52.144;5.430;2022-12-18T06:41:13;32.65;;;16.98;;
44189;SDS011;29856;52.144;5.430;2022-12-18T06:43:41;27.63;;;14.30;;
44189;SDS011;29856;52.144;5.430;2022-12-18T06:46:06;29.40;;;14.85;;
44189;SDS011;29856;52.144;5.430;2022-12-18T06:48:33;29.88;;;15.45;;
44189;SDS011;29856;52.144;5.430;2022-12-18T06:50:58;26.17;;;14.13;;
44189;SDS011;29856;52.144;5.430;2022-12-18T06:53:24;27.00;;;16.02;;
44189;SDS011;29856;52.144;5.430;2022-12-18T06:55:50;24.73;;;13.18;;
44189;SDS011;29856;52.144;5.430;2022-12-18T06:58:16;32.17;;;16.27;;
44189;SDS011;29856;52.144;5.430;2022-12-18T07:00:41;24.50;;;14.32;;
44189;SDS011;29856;52.144;5.430;2022-12-18T07:03:07;22.95;;;13.25;;
44189;SDS011;29856;52.144;5.430;2022-12-18T07:05:32;23.77;;;13.55;;
44189;SDS011;29856;52.144;5.430;2022-12-18T07:07:58;25.80;;;15.18;;
44189;SDS011;29856;52.144;5.430;2022-12-18T07:10:23;24.80;;;14.85;;
44189;SDS011;29856;52.144;5.430;2022-12-18T07:12:49;23.60;;;13.93;;
44189;SDS011;29856;52.144;5.430;2022-12-18T07:15:14;25.75;;;15.23;;
44189;SDS011;29856;52.144;5.430;2022-12-18T07:17:40;27.05;;;14.88;;
44189;SDS011;29856;52.144;5.430;2022-12-18T07:20:08;30.35;;;17.02;;
44189;SDS011;29856;52.144;5.430;2022-12-18T07:22:34;22.65;;;13.27;;
44189;SDS011;29856;52.144;5.430;2022-12-18T07:24:59;22.73;;;14.27;;
44189;SDS011;29856;52.144;5.430;2022-12-18T07:27:25;21.67;;;12.85;;
44189;SDS011;29856;52.144;5.430;2022-12-18T07:29:50;22.80;;;13.68;;
44189;SDS011;29856;52.144;5.430;2022-12-18T07:32:16;23.08;;;12.15;;
44189;SDS011;29856;52.144;5.430;2022-12-18T07:34:41;24.42;;;14.65;;
44189;SDS011;29856;52.144;5.430;2022-12-18T07:37:07;19.13;;;12.18;;
44189;SDS011;29856;52.144;5.430;2022-12-18T07:39:32;25.73;;;14.65;;
44189;SDS011;29856;52.144;5.430;2022-12-18T07:41:58;22.17;;;12.20;;
44189;SDS011;29856;52.144;5.430;2022-12-18T07:44:23;19.67;;;12.55;;
44189;SDS011;29856;52.144;5.430;2022-12-18T07:46:48;22.52;;;12.75;;
44189;SDS011;29856;52.144;5.430;2022-12-18T07:49:14;24.80;;;12.43;;
44189;SDS011;29856;52.144;5.430;2022-12-18T07:51:39;25.48;;;13.60;;
44189;SDS011;29856;52.144;5.430;2022-12-18T07:54:05;22.40;;;13.63;;
44189;SDS011;29856;52.144;5.430;2022-12-18T07:56:30;23.15;;;13.98;;
44189;SDS011;29856;52.144;5.430;2022-12-18T07:58:56;19.92;;;12.60;;
44189;SDS011;29856;52.144;5.430;2022-12-18T08:01:22;23.70;;;12.75;;
44189;SDS011;29856;52.144;5.430;2022-12-18T08:03:47;23.08;;;12.63;;
44189;SDS011;29856;52.144;5.430;2022-12-18T08:06:13;25.33;;;13.32;;
44189;SDS011;29856;52.144;5.430;2022-12-18T08:08:38;20.70;;;12.40;;
44189;SDS011;29856;52.144;5.430;2022-12-18T08:11:04;20.95;;;13.40;;
44189;SDS011;29856;52.144;5.430;2022-12-18T08:13:29;22.80;;;12.73;;
44189;SDS011;29856;52.144;5.430;2022-12-18T08:15:58;22.27;;;12.85;;
44189;SDS011;29856;52.144;5.430;2022-12-18T08:18:25;22.02;;;11.60;;
44189;SDS011;29856;52.144;5.430;2022-12-18T08:20:51;20.20;;;12.00;;
44189;SDS011;29856;52.144;5.430;2022-12-18T08:23:17;18.70;;;12.32;;
44189;SDS011;29856;52.144;5.430;2022-12-18T08:25:42;18.85;;;11.85;;
44189;SDS011;29856;52.144;5.430;2022-12-18T08:28:08;23.13;;;13.15;;
44189;SDS011;29856;52.144;5.430;2022-12-18T08:30:33;22.40;;;12.75;;
44189;SDS011;29856;52.144;5.430;2022-12-18T08:33:00;18.38;;;11.80;;
44189;SDS011;29856;52.144;5.430;2022-12-18T08:35:25;23.77;;;13.68;;
44189;SDS011;29856;52.144;5.430;2022-12-18T08:37:50;20.45;;;11.18;;
44189;SDS011;29856;52.144;5.430;2022-12-18T08:40:16;20.02;;;12.95;;
44189;SDS011;29856;52.144;5.430;2022-12-18T08:42:41;17.90;;;11.50;;
44189;SDS011;29856;52.144;5.430;2022-12-18T08:45:07;21.65;;;13.32;;
44189;SDS011;29856;52.144;5.430;2022-12-18T08:47:33;21.80;;;12.60;;
44189;SDS011;29856;52.144;5.430;2022-12-18T08:49:58;21.63;;;12.93;;
44189;SDS011;29856;52.144;5.430;2022-12-18T08:52:24;20.38;;;12.23;;
44189;SDS011;29856;52.144;5.430;2022-12-18T08:54:49;20.40;;;12.98;;
44189;SDS011;29856;52.144;5.430;2022-12-18T08:57:15;21.50;;;13.60;;
44189;SDS011;29856;52.144;5.430;2022-12-18T08:59:40;18.63;;;12.57;;
44189;SDS011;29856;52.144;5.430;2022-12-18T09:02:05;25.92;;;14.00;;
44189;SDS011;29856;52.144;5.430;2022-12-18T09:04:32;20.70;;;13.32;;
44189;SDS011;29856;52.144;5.430;2022-12-18T09:06:58;19.52;;;12.13;;
44189;SDS011;29856;52.144;5.430;2022-12-18T09:09:23;23.52;;;14.00;;
44189;SDS011;29856;52.144;5.430;2022-12-18T09:11:49;20.80;;;11.90;;
44189;SDS011;29856;52.144;5.430;2022-12-18T09:14:14;23.00;;;13.07;;
44189;SDS011;29856;52.144;5.430;2022-12-18T09:16:40;22.13;;;12.77;;
44189;SDS011;29856;52.144;5.430;2022-12-18T09:19:05;21.23;;;12.75;;
44189;SDS011;29856;52.144;5.430;2022-12-18T09:21:32;25.70;;;12.88;;
44189;SDS011;29856;52.144;5.430;2022-12-18T09:23:59;21.70;;;13.65;;
44189;SDS011;29856;52.144;5.430;2022-12-18T09:26:25;22.40;;;13.25;;
44189;SDS011;29856;52.144;5.430;2022-12-18T09:28:51;22.77;;;12.50;;
44189;SDS011;29856;52.144;5.430;2022-12-18T09:31:18;20.95;;;12.20;;
44189;SDS011;29856;52.144;5.430;2022-12-18T09:33:45;21.73;;;12.85;;
44189;SDS011;29856;52.144;5.430;2022-12-18T09:36:11;20.42;;;13.00;;
44189;SDS011;29856;52.144;5.430;2022-12-18T09:38:38;24.30;;;13.77;;
44189;SDS011;29856;52.144;5.430;2022-12-18T09:41:05;22.27;;;13.57;;
44189;SDS011;29856;52.144;5.430;2022-12-18T09:43:49;19.15;;;12.93;;
44189;SDS011;29856;52.144;5.430;2022-12-18T09:46:38;19.58;;;12.18;;
44189;SDS011;29856;52.144;5.430;2022-12-18T09:49:11;18.00;;;11.02;;
44189;SDS011;29856;52.144;5.430;2022-12-18T09:51:40;19.17;;;11.95;;
44189;SDS011;29856;52.144;5.430;2022-12-18T09:54:16;21.33;;;12.05;;
44189;SDS011;29856;52.144;5.430;2022-12-18T09:56:45;22.02;;;12.27;;
44189;SDS011;29856;52.144;5.430;2022-12-18T09:59:55;17.88;;;11.15;;
44189;SDS011;29856;52.144;5.430;2022-12-18T10:02:21;17.73;;;10.68;;
44189;SDS011;29856;52.144;5.430;2022-12-18T10:05:10;19.48;;;11.80;;
44189;SDS011;29856;52.144;5.430;2022-12-18T10:10:21;20.35;;;11.38;;
44189;SDS011;29856;52.144;5.430;2022-12-18T10:13:05;16.88;;;10.60;;
44189;SDS011;29856;52.144;5.430;2022-12-18T10:15:36;20.75;;;12.50;;
44189;SDS011;29856;52.144;5.430;2022-12-18T10:20:48;21.58;;;12.23;;
44189;SDS011;29856;52.144;5.430;2022-12-18T10:23:22;19.25;;;10.95;;
44189;SDS011;29856;52.144;5.430;2022-12-18T10:26:06;17.50;;;10.80;;
44189;SDS011;29856;52.144;5.430;2022-12-18T10:28:35;18.00;;;10.82;;
44189;SDS011;29856;52.144;5.430;2022-12-18T10:31:02;22.42;;;12.18;;
44189;SDS011;29856;52.144;5.430;2022-12-18T10:33:31;19.30;;;10.75;;
44189;SDS011;29856;52.144;5.430;2022-12-18T10:35:58;18.95;;;11.00;;
44189;SDS011;29856;52.144;5.430;2022-12-18T10:38:25;16.30;;;10.43;;
44189;SDS011;29856;52.144;5.430;2022-12-18T10:40:56;19.25;;;11.05;;
44189;SDS011;29856;52.144;5.430;2022-12-18T10:48:34;19.45;;;11.73;;
44189;SDS011;29856;52.144;5.430;2022-12-18T10:51:29;19.20;;;11.32;;
44189;SDS011;29856;52.144;5.430;2022-12-18T10:54:01;17.08;;;10.45;;
44189;SDS011;29856;52.144;5.430;2022-12-18T10:56:33;18.83;;;11.48;;
44189;SDS011;29856;52.144;5.430;2022-12-18T10:59:01;18.80;;;11.18;;
44189;SDS011;29856;52.144;5.430;2022-12-18T11:01:28;17.67;;;10.52;;
44189;SDS011;29856;52.144;5.430;2022-12-18T11:04:21;20.58;;;10.82;;
44189;SDS011;29856;52.144;5.430;2022-12-18T11:07:12;16.63;;;9.70;;
44189;SDS011;29856;52.144;5.430;2022-12-18T11:09:38;15.57;;;9.18;;
44189;SDS011;29856;52.144;5.430;2022-12-18T11:12:18;16.08;;;9.27;;
44189;SDS011;29856;52.144;5.430;2022-12-18T11:14:48;17.45;;;10.55;;
44189;SDS011;29856;52.144;5.430;2022-12-18T11:17:49;18.30;;;10.35;;
44189;SDS011;29856;52.144;5.430;2022-12-18T11:20:19;15.23;;;10.02;;
44189;SDS011;29856;52.144;5.430;2022-12-18T11:22:53;15.35;;;9.95;;
44189;SDS011;29856;52.144;5.430;2022-12-18T11:25:21;19.60;;;11.65;;
44189;SDS011;29856;52.144;5.430;2022-12-18T11:27:54;16.52;;;10.55;;
44189;SDS011;29856;52.144;5.430;2022-12-18T11:30:26;15.23;;;9.05;;
44189;SDS011;29856;52.144;5.430;2022-12-18T11:32:53;18.13;;;11.45;;
44189;SDS011;29856;52.144;5.430;2022-12-18T11:35:35;17.83;;;9.82;;
44189;SDS011;29856;52.144;5.430;2022-12-18T11:40:45;14.02;;;9.10;;
44189;SDS011;29856;52.144;5.430;2022-12-18T11:43:34;16.50;;;10.48;;
44189;SDS011;29856;52.144;5.430;2022-12-18T11:46:10;15.80;;;10.38;;
44189;SDS011;29856;52.144;5.430;2022-12-18T11:51:11;14.35;;;9.40;;
44189;SDS011;29856;52.144;5.430;2022-12-18T11:53:44;17.02;;;9.80;;
44189;SDS011;29856;52.144;5.430;2022-12-18T11:56:53;14.98;;;9.90;;
44189;SDS011;29856;52.144;5.430;2022-12-18T11:59:07;17.73;;;11.32;;
44189;SDS011;29856;52.144;5.430;2022-12-18T12:01:50;16.65;;;10.32;;
44189;SDS011;29856;52.144;5.430;2022-12-18T12:21:40;16.88;;;10.75;;
44189;SDS011;29856;52.144;5.430;2022-12-18T12:29:43;15.48;;;10.07;;
44189;SDS011;29856;52.144;5.430;2022-12-18T12:37:35;17.95;;;10.73;;
44189;SDS011;29856;52.144;5.430;2022-12-18T12:40:23;18.90;;;11.77;;
44189;SDS011;29856;52.144;5.430;2022-12-18T12:42:53;17.23;;;10.52;;
44189;SDS011;29856;52.144;5.430;2022-12-18T12:45:28;18.20;;;10.85;;
44189;SDS011;29856;52.144;5.430;2022-12-18T12:48:04;19.67;;;11.50;;
44189;SDS011;29856;52.144;5.430;2022-12-18T12:50:38;16.02;;;10.07;;
44189;SDS011;29856;52.144;5.430;2022-12-18T12:53:06;18.65;;;11.15;;
44189;SDS011;29856;52.144;5.430;2022-12-18T12:55:38;17.48;;;10.48;;
44189;SDS011;29856;52.144;5.430;2022-12-18T12:58:49;14.25;;;9.93;;
44189;SDS011;29856;52.144;5.430;2022-12-18T13:08:57;21.23;;;12.48;;
44189;SDS011;29856;52.144;5.430;2022-12-18T13:11:43;19.80;;;11.23;;
44189;SDS011;29856;52.144;5.430;2022-12-18T13:14:19;17.52;;;11.48;;
44189;SDS011;29856;52.144;5.430;2022-12-18T13:16:47;21.10;;;12.57;;
44189;SDS011;29856;52.144;5.430;2022-12-18T13:19:21;19.83;;;11.60;;
44189;SDS011;29856;52.144;5.430;2022-12-18T13:21:52;16.58;;;10.40;;
44189;SDS011;29856;52.144;5.430;2022-12-18T13:24:22;17.20;;;10.40;;
44189;SDS011;29856;52.144;5.430;2022-12-18T13:26:52;15.43;;;10.38;;
44189;SDS011;29856;52.144;5.430;2022-12-18T13:32:18;16.45;;;10.20;;
44189;SDS011;29856;52.144;5.430;2022-12-18T13:34:48;16.45;;;10.60;;
44189;SDS011;29856;52.144;5.430;2022-12-18T13:39:57;16.20;;;9.75;;
44189;SDS011;29856;52.144;5.430;2022-12-18T13:44:54;17.63;;;10.80;;
44189;SDS011;29856;52.144;5.430;2022-12-18T13:47:27;20.05;;;11.82;;
44189;SDS011;29856;52.144;5.430;2022-12-18T13:49:56;21.02;;;11.77;;
44189;SDS011;29856;52.144;5.430;2022-12-18T13:52:26;17.33;;;10.70;;
44189;SDS011;29856;52.144;5.430;2022-12-18T13:54:59;25.95;;;13.00;;
44189;SDS011;29856;52.144;5.430;2022-12-18T13:57:29;19.35;;;11.02;;
44189;SDS011;29856;52.144;5.430;2022-12-18T13:59:57;21.17;;;12.23;;
44189;SDS011;29856;52.144;5.430;2022-12-18T14:02:25;21.73;;;12.77;;
44189;SDS011;29856;52.144;5.430;2022-12-18T14:04:54;20.58;;;12.18;;
44189;SDS011;29856;52.144;5.430;2022-12-18T14:07:23;16.13;;;10.65;;
44189;SDS011;29856;52.144;5.430;2022-12-18T14:09:51;18.95;;;11.07;;
44189;SDS011;29856;52.144;5.430;2022-12-18T14:12:20;20.15;;;13.18;;
44189;SDS011;29856;52.144;5.430;2022-12-18T14:14:50;22.30;;;13.43;;
44189;SDS011;29856;52.144;5.430;2022-12-18T14:17:17;17.55;;;11.00;;
44189;SDS011;29856;52.144;5.430;2022-12-18T14:19:47;16.13;;;11.43;;
44189;SDS011;29856;52.144;5.430;2022-12-18T14:22:16;18.42;;;11.43;;
44189;SDS011;29856;52.144;5.430;2022-12-18T14:25:05;18.15;;;11.35;;
44189;SDS011;29856;52.144;5.430;2022-12-18T14:27:42;21.55;;;12.80;;
44189;SDS011;29856;52.144;5.430;2022-12-18T14:30:32;20.92;;;12.38;;
44189;SDS011;29856;52.144;5.430;2022-12-18T14:33:12;21.55;;;12.30;;
44189;SDS011;29856;52.144;5.430;2022-12-18T14:35:51;21.45;;;12.02;;
44189;SDS011;29856;52.144;5.430;2022-12-18T14:40:56;21.25;;;12.88;;
44189;SDS011;29856;52.144;5.430;2022-12-18T14:43:23;18.30;;;11.70;;
44189;SDS011;29856;52.144;5.430;2022-12-18T14:45:49;18.77;;;12.13;;
44189;SDS011;29856;52.144;5.430;2022-12-18T14:50:54;19.58;;;12.70;;
44189;SDS011;29856;52.144;5.430;2022-12-18T14:56:21;22.45;;;12.50;;
44189;SDS011;29856;52.144;5.430;2022-12-18T14:58:55;25.65;;;13.38;;
44189;SDS011;29856;52.144;5.430;2022-12-18T15:01:27;20.83;;;12.60;;
44189;SDS011;29856;52.144;5.430;2022-12-18T15:04:01;22.95;;;14.38;;
44189;SDS011;29856;52.144;5.430;2022-12-18T15:06:29;19.77;;;13.00;;
44189;SDS011;29856;52.144;5.430;2022-12-18T15:09:04;20.63;;;12.85;;
44189;SDS011;29856;52.144;5.430;2022-12-18T15:11:46;20.48;;;11.95;;
44189;SDS011;29856;52.144;5.430;2022-12-18T15:14:24;24.20;;;12.88;;
44189;SDS011;29856;52.144;5.430;2022-12-18T15:17:06;21.48;;;13.25;;
44189;SDS011;29856;52.144;5.430;2022-12-18T15:19:42;20.73;;;12.68;;
44189;SDS011;29856;52.144;5.430;2022-12-18T15:22:19;20.73;;;12.95;;
44189;SDS011;29856;52.144;5.430;2022-12-18T15:24:51;28.13;;;12.85;;
44189;SDS011;29856;52.144;5.430;2022-12-18T15:27:21;21.17;;;12.77;;
44189;SDS011;29856;52.144;5.430;2022-12-18T15:30:00;22.42;;;14.13;;
44189;SDS011;29856;52.144;5.430;2022-12-18T15:32:32;23.73;;;14.27;;
44189;SDS011;29856;52.144;5.430;2022-12-18T15:38:01;26.50;;;13.57;;
44189;SDS011;29856;52.144;5.430;2022-12-18T15:40:27;21.88;;;13.57;;
44189;SDS011;29856;52.144;5.430;2022-12-18T15:42:53;20.52;;;13.30;;
44189;SDS011;29856;52.144;5.430;2022-12-18T15:45:20;24.48;;;15.05;;
44189;SDS011;29856;52.144;5.430;2022-12-18T15:47:45;24.60;;;12.98;;
44189;SDS011;29856;52.144;5.430;2022-12-18T15:50:11;23.48;;;14.25;;
44189;SDS011;29856;52.144;5.430;2022-12-18T15:52:39;24.83;;;14.45;;
44189;SDS011;29856;52.144;5.430;2022-12-18T15:55:12;25.17;;;15.73;;
44189;SDS011;29856;52.144;5.430;2022-12-18T15:57:39;25.65;;;15.43;;
44189;SDS011;29856;52.144;5.430;2022-12-18T16:00:04;29.90;;;15.85;;
44189;SDS011;29856;52.144;5.430;2022-12-18T16:02:30;26.52;;;15.23;;
44189;SDS011;29856;52.144;5.430;2022-12-18T16:04:56;22.33;;;13.82;;
44189;SDS011;29856;52.144;5.430;2022-12-18T16:07:21;22.10;;;12.55;;